createdAt,value
2024-02-07T00:03:38.371Z,1.42
2024-02-07T00:08:40.416Z,1.63
2024-02-07T00:13:42.896Z,1.92
2024-02-07T00:18:44.772Z,1.23
2024-02-07T00:23:46.384Z,1.40
2024-02-07T00:28:47.989Z,2.13
2024-02-07T00:33:49.856Z,2.72
2024-02-07T00:38:51.538Z,1.80
2024-02-07T00:43:56.302Z,1.40
2024-02-07T00:48:57.988Z,1.73
2024-02-07T00:53:59.622Z,1.50
2024-02-07T00:59:01.164Z,1.63
2024-02-07T01:04:02.769Z,1.67
2024-02-07T01:09:04.572Z,1.75
2024-02-07T01:14:06.170Z,1.40
2024-02-07T01:19:08.189Z,1.60
2024-02-07T01:24:09.804Z,1.50
2024-02-07T01:29:11.416Z,1.60
2024-02-07T01:34:13.078Z,2.35
2024-02-07T01:39:19.508Z,1.67
2024-02-07T01:44:21.320Z,1.55
2024-02-07T01:49:23.507Z,1.60
2024-02-07T01:54:25.278Z,1.80
2024-02-07T01:59:27.130Z,1.60
2024-02-07T02:04:29.465Z,2.63
2024-02-07T02:09:31.398Z,1.67
2024-02-07T02:14:33.443Z,1.77
2024-02-07T02:19:37.892Z,1.98
2024-02-07T02:24:48.348Z,1.73
2024-02-07T02:29:55.428Z,2.35
2024-02-07T02:34:59.092Z,2.15
2024-02-07T02:40:01.435Z,2.30
2024-02-07T02:45:03.203Z,2.13
2024-02-07T02:50:05.371Z,2.08
2024-02-07T02:55:08.471Z,1.98
2024-02-07T03:00:11.329Z,2.08
2024-02-07T03:05:35.877Z,3.55
2024-02-07T03:10:37.989Z,2.58
2024-02-07T03:15:40.554Z,3.28
2024-02-07T03:20:42.470Z,4.43
2024-02-07T03:25:44.205Z,3.35
2024-02-07T03:30:46.029Z,4.65
2024-02-07T03:35:47.783Z,3.08
2024-02-07T03:40:51.243Z,4.68
2024-02-07T03:45:53.925Z,5.55
2024-02-07T03:50:55.591Z,2.95
2024-02-07T03:55:57.193Z,3.67
2024-02-07T04:00:59.746Z,3.38
2024-02-07T04:06:05.971Z,3.88
2024-02-07T04:11:09.036Z,3.80
2024-02-07T04:16:29.667Z,3.92
2024-02-07T04:21:49.520Z,4.65
2024-02-07T04:27:12.768Z,3.72
2024-02-07T04:32:33.016Z,4.75
2024-02-07T04:37:53.620Z,2.67
2024-02-07T04:43:13.745Z,4.40
2024-02-07T04:48:34.172Z,3.90
2024-02-07T04:53:54.302Z,4.95
2024-02-07T04:59:14.241Z,5.05
2024-02-07T05:04:34.098Z,3.15
2024-02-07T05:09:54.238Z,4.03
2024-02-07T05:14:55.773Z,4.07
2024-02-07T05:19:58.351Z,3.10
2024-02-07T05:25:01.682Z,3.35
2024-02-07T05:30:04.968Z,2.83
2024-02-07T05:35:06.754Z,3.00
2024-02-07T05:40:08.871Z,4.45
2024-02-07T05:45:10.550Z,3.40
2024-02-07T05:50:12.593Z,3.28
2024-02-07T05:55:14.458Z,3.88
2024-02-07T06:00:16.664Z,3.42
2024-02-07T06:05:18.726Z,4.13
2024-02-07T06:10:21.937Z,3.15
2024-02-07T06:15:23.646Z,3.70
2024-02-07T06:20:25.490Z,3.63
2024-02-07T06:25:28.197Z,3.35
2024-02-07T06:30:29.837Z,2.95
2024-02-07T06:35:31.457Z,3.95
2024-02-07T06:40:33.150Z,2.53
2024-02-07T06:45:34.726Z,4.00
2024-02-07T06:50:36.338Z,3.17
2024-02-07T06:55:37.914Z,3.45
2024-02-07T07:00:39.775Z,3.08
2024-02-07T07:05:41.438Z,3.72
2024-02-07T07:10:43.381Z,4.00
2024-02-07T07:15:44.931Z,2.88
2024-02-07T07:20:46.446Z,2.88
2024-02-07T07:25:49.153Z,2.72
2024-02-07T07:30:50.815Z,2.60
2024-02-07T07:35:52.684Z,4.28
2024-02-07T07:40:54.351Z,3.08
2024-02-07T07:45:56.398Z,2.53
2024-02-07T07:50:57.925Z,3.97
2024-02-07T07:55:59.631Z,2.35
2024-02-07T08:01:01.345Z,3.05
2024-02-07T08:06:03.075Z,1.92
2024-02-07T08:11:04.926Z,2.15
2024-02-07T08:16:06.856Z,2.92
2024-02-07T08:21:09.672Z,1.83
2024-02-07T08:26:12.246Z,2.30
2024-02-07T08:31:14.045Z,2.30
2024-02-07T08:36:15.765Z,2.13
2024-02-07T08:41:17.516Z,2.80
2024-02-07T08:46:19.113Z,2.65
2024-02-07T08:51:20.738Z,2.13
2024-02-07T08:56:22.377Z,2.90
2024-02-07T09:01:24.489Z,2.53
2024-02-07T09:06:26.165Z,2.38
2024-02-07T09:11:27.787Z,2.65
2024-02-07T09:16:29.425Z,2.80
2024-02-07T09:21:34.571Z,3.03
2024-02-07T09:26:37.318Z,2.13
2024-02-07T09:31:38.939Z,2.50
2024-02-07T09:36:42.016Z,2.42
2024-02-07T09:41:44.662Z,2.50
2024-02-07T09:46:46.717Z,2.47
2024-02-07T09:51:48.497Z,2.25
2024-02-07T09:56:50.325Z,2.08
2024-02-07T10:01:54.046Z,1.92
2024-02-07T10:06:55.683Z,1.98
2024-02-07T10:11:57.692Z,1.83
2024-02-07T10:16:59.299Z,1.92
2024-02-07T10:22:01.206Z,1.95
2024-02-07T10:27:02.778Z,2.10
2024-02-07T10:32:05.650Z,2.47
2024-02-07T10:37:07.615Z,2.10
2024-02-07T10:42:10.499Z,1.70
2024-02-07T10:47:12.285Z,1.67
2024-02-07T10:52:13.998Z,1.90
2024-02-07T10:57:16.298Z,2.13
2024-02-07T11:02:18.395Z,2.00
2024-02-07T11:07:21.078Z,2.10
2024-02-07T11:12:23.566Z,1.80
2024-02-07T11:17:25.356Z,1.50
2024-02-07T11:22:34.076Z,1.70
2024-02-07T11:27:41.254Z,1.60
2024-02-07T11:32:42.864Z,2.40
2024-02-07T11:37:49.633Z,1.77
2024-02-07T11:43:01.183Z,1.40
2024-02-07T11:48:03.029Z,1.90
2024-02-07T11:53:04.787Z,1.65
2024-02-07T11:58:08.805Z,2.20
2024-02-07T12:03:14.161Z,1.80
2024-02-07T12:08:16.200Z,2.15
2024-02-07T12:13:17.893Z,2.17
2024-02-07T12:18:19.524Z,1.27
2024-02-07T12:23:21.133Z,1.30
2024-02-07T12:28:22.723Z,1.77
2024-02-07T12:33:25.022Z,2.20
2024-02-07T12:38:27.166Z,1.67
2024-02-07T12:43:31.783Z,1.52
2024-02-07T12:48:34.412Z,2.00
2024-02-07T12:53:36.517Z,1.48
2024-02-07T12:58:47.393Z,1.60
2024-02-07T13:03:49.058Z,1.55
2024-02-07T13:08:50.895Z,2.30
2024-02-07T13:13:52.511Z,1.90
2024-02-07T13:18:55.516Z,1.98
2024-02-07T13:23:57.144Z,1.77
2024-02-07T13:28:58.931Z,1.90
2024-02-07T13:34:00.714Z,1.90
2024-02-07T13:39:02.311Z,2.05
2024-02-07T13:44:03.952Z,2.08
2024-02-07T13:49:09.834Z,2.20
2024-02-07T13:54:14.055Z,7.72
2024-02-07T13:59:16.630Z,1.77
2024-02-07T14:04:18.394Z,2.38
2024-02-07T14:09:20.107Z,1.50
2024-02-07T14:14:21.735Z,3.63
2024-02-07T14:19:23.422Z,1.58
2024-02-07T14:24:25.075Z,1.95
2024-02-07T14:29:26.609Z,1.80
2024-02-07T14:34:28.332Z,1.50
2024-02-07T14:39:31.277Z,1.52
2024-02-07T14:44:32.907Z,2.05
2024-02-07T14:49:34.603Z,1.83
2024-02-07T14:54:36.399Z,1.58
2024-02-07T14:59:38.032Z,1.63
2024-02-07T15:04:42.673Z,1.50
2024-02-07T15:09:45.504Z,1.95
2024-02-07T15:14:48.486Z,1.70
2024-02-07T15:19:50.016Z,1.90
2024-02-07T15:24:51.584Z,2.20
2024-02-07T15:29:53.138Z,2.60
2024-02-07T15:34:54.700Z,2.53
2024-02-07T15:39:56.355Z,1.63
2024-02-07T15:44:57.926Z,3.70
2024-02-07T15:49:59.554Z,2.20
2024-02-07T15:55:01.198Z,1.90
2024-02-07T16:00:03.209Z,2.80
2024-02-07T16:05:05.223Z,2.90
2024-02-07T16:10:08.523Z,4.97
2024-02-07T16:15:10.297Z,5.78
2024-02-07T16:20:12.403Z,2.58
2024-02-07T16:25:14.067Z,3.17
2024-02-07T16:30:15.865Z,2.92
2024-02-07T16:35:18.709Z,4.47
2024-02-07T16:40:20.439Z,1.83
2024-02-07T16:45:22.023Z,1.77
2024-02-07T16:50:23.560Z,2.80
2024-02-07T16:55:25.248Z,1.88
2024-02-07T17:00:26.893Z,2.55
2024-02-07T17:05:28.480Z,2.50
2024-02-07T17:10:30.465Z,3.10
2024-02-07T17:15:33.757Z,3.22
2024-02-07T17:20:35.399Z,3.85
2024-02-07T17:25:37.063Z,5.18
2024-02-07T17:30:38.669Z,5.63
2024-02-07T17:35:40.225Z,7.13
2024-02-07T17:40:42.033Z,6.50
2024-02-07T17:45:43.660Z,5.85
2024-02-07T17:50:45.338Z,6.88
2024-02-07T17:55:47.038Z,7.97
2024-02-07T18:00:48.652Z,7.28
2024-02-07T18:05:50.458Z,7.47
2024-02-07T18:10:57.039Z,7.65
2024-02-07T18:15:58.865Z,8.38
2024-02-07T18:21:00.397Z,7.38
2024-02-07T18:26:02.105Z,8.32
2024-02-07T18:31:04.081Z,9.15
2024-02-07T18:36:07.730Z,7.20
2024-02-07T18:41:09.343Z,7.10
2024-02-07T18:46:10.887Z,6.93
2024-02-07T18:51:12.473Z,7.90
2024-02-07T18:56:14.611Z,8.15
2024-02-07T19:01:16.926Z,8.93
2024-02-07T19:06:18.599Z,9.23
2024-02-07T19:11:20.710Z,10.90
2024-02-07T19:16:25.537Z,11.02
2024-02-07T19:21:28.371Z,11.70
2024-02-07T19:26:30.010Z,15.00
2024-02-07T19:31:31.577Z,17.73
2024-02-07T19:36:33.211Z,19.77
2024-02-07T19:41:34.939Z,17.90
2024-02-07T19:46:37.310Z,17.42
2024-02-07T19:51:38.936Z,17.95
2024-02-07T19:56:42.640Z,17.35
2024-02-07T20:01:44.386Z,17.10
2024-02-07T20:06:46.060Z,17.83
2024-02-07T20:11:49.200Z,17.10
2024-02-07T20:16:50.872Z,16.20
2024-02-07T20:21:52.668Z,17.35
2024-02-07T20:26:56.769Z,17.27
2024-02-07T20:32:02.608Z,20.02
2024-02-07T20:37:04.399Z,18.35
2024-02-07T20:42:06.037Z,18.05
2024-02-07T20:47:07.616Z,19.08
2024-02-07T20:52:09.345Z,20.27
2024-02-07T20:57:10.978Z,23.08
2024-02-07T21:02:12.587Z,20.15
2024-02-07T21:07:14.320Z,19.85
2024-02-07T21:12:16.058Z,20.38
2024-02-07T21:17:17.778Z,19.70
2024-02-07T21:22:22.364Z,19.52
2024-02-07T21:27:23.877Z,19.50
2024-02-07T21:32:25.545Z,21.67
2024-02-07T21:37:27.194Z,21.83
2024-02-07T21:42:30.033Z,20.73
2024-02-07T21:47:31.675Z,20.35
2024-02-07T21:52:33.578Z,18.95
2024-02-07T21:57:35.148Z,18.55
2024-02-07T22:02:36.714Z,18.33
2024-02-07T22:07:38.329Z,17.13
2024-02-07T22:12:39.939Z,17.25
2024-02-07T22:17:41.651Z,15.65
2024-02-07T22:22:43.994Z,15.57
2024-02-07T22:27:45.595Z,14.45
2024-02-07T22:32:51.766Z,13.85
2024-02-07T22:37:53.532Z,15.50
2024-02-07T22:42:55.098Z,15.35
2024-02-07T22:47:57.255Z,19.17
2024-02-07T22:52:58.947Z,17.42
2024-02-07T22:58:00.473Z,16.80
2024-02-07T23:03:02.090Z,17.13
2024-02-07T23:08:04.071Z,16.67
2024-02-07T23:13:05.932Z,17.83
2024-02-07T23:18:08.450Z,18.23
2024-02-07T23:23:10.080Z,17.25
2024-02-07T23:28:14.334Z,17.10
2024-02-07T23:33:20.872Z,16.50
2024-02-07T23:38:22.466Z,16.08
2024-02-07T23:43:24.218Z,14.77
2024-02-07T23:48:25.964Z,14.80
2024-02-07T23:53:27.558Z,14.55
2024-02-07T23:58:29.138Z,15.80
